Time;durP1;ratioP1;P1;durP2;ratioP2;P2;SDS_P1;SDS_P2;PMS_P1;PMS_P2;Temp;Humidity;BMP_temperature;BMP_pressure;BME280_temperature;BME280_humidity;BME280_pressure;Samples;Min_cycle;Max_cycle;Signal;HPM_P1;HPM_P2
2022/01/08 00:00:12;;;;;;;83.67;25.27;;;;;;;;;;4995490;28;20073;-71
2022/01/08 00:02:41;;;;;;;56.85;21.58;;;;;;;;;;4997018;28;20056;-73
2022/01/08 00:05:07;;;;;;;75.70;25.85;;;;;;;;;;5012058;28;20046;-74
2022/01/08 00:07:32;;;;;;;87.50;27.57;;;;;;;;;;5011888;28;20042;-74
2022/01/08 00:09:57;;;;;;;120.03;30.33;;;;;;;;;;4996774;28;20045;-73
2022/01/08 00:12:23;;;;;;;83.67;24.63;;;;;;;;;;4996363;28;20033;-74
2022/01/08 00:14:49;;;;;;;96.57;26.88;;;;;;;;;;4995402;28;20041;-71
2022/01/08 00:17:15;;;;;;;107.43;28.83;;;;;;;;;;4996990;28;20043;-72
2022/01/08 00:19:40;;;;;;;98.07;28.20;;;;;;;;;;4996537;28;20108;-71
2022/01/08 00:22:06;;;;;;;83.80;24.10;;;;;;;;;;4996804;28;20165;-71
2022/01/08 00:24:31;;;;;;;86.77;25.33;;;;;;;;;;4996795;28;20042;-71
2022/01/08 00:26:57;;;;;;;76.13;24.00;;;;;;;;;;4995259;28;20026;-71
2022/01/08 00:29:22;;;;;;;85.73;25.47;;;;;;;;;;4996426;28;20046;-73
2022/01/08 00:31:47;;;;;;;61.70;21.30;;;;;;;;;;5011682;28;20042;-74
2022/01/08 00:34:13;;;;;;;78.17;23.87;;;;;;;;;;4995298;28;20529;-73
2022/01/08 00:36:39;;;;;;;55.93;19.50;;;;;;;;;;4996089;28;20044;-74
2022/01/08 00:39:04;;;;;;;67.43;21.23;;;;;;;;;;5011568;28;20081;-73
2022/01/08 00:41:30;;;;;;;73.23;21.63;;;;;;;;;;4996201;28;20409;-74
2022/01/08 00:43:56;;;;;;;87.30;25.00;;;;;;;;;;4995066;28;20051;-73
2022/01/08 00:46:21;;;;;;;73.57;22.57;;;;;;;;;;5011224;28;20323;-74
2022/01/08 00:48:47;;;;;;;84.97;25.30;;;;;;;;;;5011306;28;20460;-75
2022/01/08 00:51:12;;;;;;;77.27;22.17;;;;;;;;;;4995977;28;20526;-73
2022/01/08 00:53:38;;;;;;;72.27;22.33;;;;;;;;;;4995680;28;20038;-74
2022/01/08 00:56:04;;;;;;;52.95;18.85;;;;;;;;;;5011074;28;20038;-73
2022/01/08 00:58:30;;;;;;;55.90;18.27;;;;;;;;;;5011137;28;20042;-74
2022/01/08 01:00:55;;;;;;;69.47;19.20;;;;;;;;;;4995769;28;20157;-74
2022/01/08 01:03:21;;;;;;;81.13;21.83;;;;;;;;;;5009908;28;20030;-74
2022/01/08 01:05:46;;;;;;;70.13;21.00;;;;;;;;;;4993417;28;20045;-74
2022/01/08 01:08:12;;;;;;;64.10;20.90;;;;;;;;;;4995975;28;20493;-74
2022/01/08 01:10:37;;;;;;;76.90;20.40;;;;;;;;;;4995649;28;20034;-75
2022/01/08 01:13:03;;;;;;;63.33;21.97;;;;;;;;;;5010618;28;20046;-71
2022/01/08 01:15:28;;;;;;;64.13;20.30;;;;;;;;;;4993547;28;20038;-71
2022/01/08 01:17:54;;;;;;;66.97;22.03;;;;;;;;;;4994125;28;20030;-71
2022/01/08 01:20:22;;;;;;;53.77;17.70;;;;;;;;;;4995534;28;20038;-71
2022/01/08 01:25:20;;;;;;;54.10;17.75;;;;;;;;;;4995493;28;20033;-73
2022/01/08 01:27:57;;;;;;;74.65;22.17;;;;;;;;;;5008248;28;20383;-71
2022/01/08 01:30:48;;;;;;;;;;;;;;;;;;4995795;28;20034;-73
2022/01/08 01:47:03;;;;;;;56.60;20.23;;;;;;;;;;4994588;28;20042;-74
2022/01/08 01:49:33;;;;;;;54.05;17.50;;;;;;;;;;5006143;28;20034;-73
2022/01/08 01:52:00;;;;;;;65.15;21.27;;;;;;;;;;5009983;28;20100;-74
2022/01/08 01:54:29;;;;;;;45.40;17.52;;;;;;;;;;5010092;28;20048;-72
2022/01/08 01:56:57;;;;;;;39.67;16.42;;;;;;;;;;4994603;28;20117;-71
2022/01/08 01:59:26;;;;;;;36.67;17.60;;;;;;;;;;4994638;28;20142;-71
2022/01/08 02:01:51;;;;;;;45.63;17.67;;;;;;;;;;4994633;28;20042;-71
2022/01/08 02:04:17;;;;;;;39.13;17.83;;;;;;;;;;4994808;28;20137;-73
2022/01/08 02:06:42;;;;;;;50.00;18.33;;;;;;;;;;4993902;28;20030;-72
2022/01/08 02:09:08;;;;;;;44.20;17.97;;;;;;;;;;4994689;28;20041;-72
2022/01/08 02:11:33;;;;;;;38.90;16.70;;;;;;;;;;4994501;28;20041;-72
2022/01/08 02:14:05;;;;;;;42.63;19.17;;;;;;;;;;4994371;28;20041;-72
2022/01/08 02:16:31;;;;;;;37.15;16.05;;;;;;;;;;5009579;28;20085;-72
2022/01/08 02:18:57;;;;;;;36.97;17.20;;;;;;;;;;5009718;28;20035;-72
2022/01/08 02:21:22;;;;;;;32.13;14.63;;;;;;;;;;5009513;28;20109;-72
2022/01/08 02:23:48;;;;;;;68.27;21.53;;;;;;;;;;4991668;28;20086;-72
2022/01/08 02:26:14;;;;;;;40.17;16.42;;;;;;;;;;4994266;28;20026;-73
2022/01/08 02:28:40;;;;;;;35.80;15.23;;;;;;;;;;4993741;28;20052;-72
2022/01/08 02:31:06;;;;;;;32.25;14.80;;;;;;;;;;5009469;28;20111;-72
2022/01/08 02:33:32;;;;;;;52.37;17.37;;;;;;;;;;4992284;28;20162;-72
2022/01/08 02:35:58;;;;;;;49.47;18.40;;;;;;;;;;4993993;28;20088;-72
2022/01/08 02:38:24;;;;;;;31.73;13.93;;;;;;;;;;5000683;28;20428;-72
2022/01/08 02:40:55;;;;;;;36.17;15.23;;;;;;;;;;4985345;28;20053;-72
2022/01/08 02:43:20;;;;;;;28.08;12.93;;;;;;;;;;4993526;28;20062;-72
2022/01/08 02:45:46;;;;;;;41.50;14.47;;;;;;;;;;4993924;28;20070;-72
2022/01/08 02:48:11;;;;;;;29.13;12.33;;;;;;;;;;4993992;28;20030;-72
2022/01/08 02:50:36;;;;;;;33.87;12.63;;;;;;;;;;4992109;28;20042;-73
2022/01/08 02:53:02;;;;;;;30.93;11.70;;;;;;;;;;4993588;28;20117;-73
2022/01/08 02:55:27;;;;;;;32.43;13.03;;;;;;;;;;4993869;28;20078;-72
2022/01/08 02:57:53;;;;;;;29.60;12.17;;;;;;;;;;4993646;28;20042;-72
2022/01/08 03:00:20;;;;;;;23.97;10.67;;;;;;;;;;4993794;28;20088;-73
2022/01/08 03:02:48;;;;;;;28.98;11.00;;;;;;;;;;4992499;28;20026;-72
2022/01/08 03:05:14;;;;;;;27.35;11.52;;;;;;;;;;5008772;28;20373;-72
2022/01/08 03:07:41;;;;;;;28.13;11.68;;;;;;;;;;5008758;28;20419;-73
2022/01/08 03:10:08;;;;;;;39.67;11.13;;;;;;;;;;4993805;28;20069;-72
2022/01/08 03:12:38;;;;;;;43.50;10.68;;;;;;;;;;5008725;28;20045;-73
2022/01/08 03:15:04;;;;;;;37.08;11.50;;;;;;;;;;4993689;28;20042;-72
2022/01/08 03:17:30;;;;;;;41.55;11.82;;;;;;;;;;4993333;28;20042;-73
2022/01/08 03:20:02;;;;;;;46.47;13.10;;;;;;;;;;4993617;28;20382;-72
2022/01/08 03:22:28;;;;;;;39.92;11.75;;;;;;;;;;4985456;28;20475;-72
2022/01/08 03:24:54;;;;;;;35.72;12.80;;;;;;;;;;5008600;28;20419;-73
2022/01/08 03:27:19;;;;;;;34.53;12.77;;;;;;;;;;4993520;28;20039;-72
2022/01/08 03:29:45;;;;;;;42.50;11.33;;;;;;;;;;4993521;28;20045;-73
2022/01/08 03:32:10;;;;;;;40.73;13.00;;;;;;;;;;4993530;28;20030;-72
2022/01/08 03:34:35;;;;;;;32.03;9.93;;;;;;;;;;4986226;28;20042;-72
2022/01/08 03:37:01;;;;;;;35.87;9.97;;;;;;;;;;4993301;28;20121;-73
2022/01/08 03:39:26;;;;;;;37.93;11.57;;;;;;;;;;4991653;28;20460;-72
2022/01/08 03:41:52;;;;;;;29.00;10.33;;;;;;;;;;4992148;28;20042;-73
2022/01/08 03:44:18;;;;;;;27.50;9.77;;;;;;;;;;4993561;28;20050;-72
2022/01/08 03:46:44;;;;;;;26.73;8.23;;;;;;;;;;4993251;28;20128;-72
2022/01/08 03:49:25;;;;;;;29.47;7.90;;;;;;;;;;4993207;28;20392;-72
2022/01/08 03:51:55;;;;;;;22.13;8.27;;;;;;;;;;4989763;28;20034;-72
2022/01/08 03:54:21;;;;;;;26.25;8.10;;;;;;;;;;5003323;28;20042;-72
2022/01/08 03:56:47;;;;;;;29.48;8.93;;;;;;;;;;5008034;28;20042;-72
2022/01/08 03:59:12;;;;;;;21.47;9.43;;;;;;;;;;4991747;28;20397;-72
2022/01/08 04:01:38;;;;;;;29.13;9.93;;;;;;;;;;4993255;28;20065;-72
2022/01/08 04:04:03;;;;;;;32.57;9.53;;;;;;;;;;4991942;28;20081;-72
2022/01/08 04:06:29;;;;;;;27.50;9.93;;;;;;;;;;4993221;28;20061;-72
2022/01/08 04:08:58;;;;;;;28.93;9.70;;;;;;;;;;4992945;28;20106;-72
2022/01/08 04:11:27;;;;;;;42.40;11.35;;;;;;;;;;4993089;28;20042;-72
2022/01/08 04:13:54;;;;;;;28.52;10.65;;;;;;;;;;4993239;28;20093;-72
2022/01/08 04:16:25;;;;;;;40.60;10.60;;;;;;;;;;4987268;28;20038;-72
2022/01/08 04:18:50;;;;;;;30.52;10.05;;;;;;;;;;4993107;28;20044;-72
2022/01/08 04:23:52;;;;;;;16.83;7.10;;;;;;;;;;5006491;28;20051;-72
2022/01/08 04:26:19;;;;;;;;;;;;;;;;;;5008713;28;20042;-72
2022/01/08 04:28:45;;;;;;;14.85;5.45;;;;;;;;;;4991760;28;20369;-72
2022/01/08 04:31:10;;;;;;;14.63;5.43;;;;;;;;;;5009164;28;20027;-72
2022/01/08 04:33:36;;;;;;;26.30;6.20;;;;;;;;;;5010151;28;20030;-72
2022/01/08 04:36:01;;;;;;;17.57;5.43;;;;;;;;;;4996371;28;20459;-72
2022/01/08 04:38:27;;;;;;;18.40;4.87;;;;;;;;;;4996392;28;20113;-72
2022/01/08 04:40:52;;;;;;;18.60;5.37;;;;;;;;;;4996349;28;20041;-72
2022/01/08 04:43:18;;;;;;;22.37;5.67;;;;;;;;;;4996297;28;20034;-72
2022/01/08 04:45:43;;;;;;;17.87;4.97;;;;;;;;;;4995996;28;20106;-73
2022/01/08 04:48:09;;;;;;;17.63;4.33;;;;;;;;;;4995944;28;20039;-72
2022/01/08 04:50:34;;;;;;;22.30;4.90;;;;;;;;;;4995731;28;20508;-72
2022/01/08 04:53:00;;;;;;;26.00;5.07;;;;;;;;;;4996464;28;20019;-72
2022/01/08 04:55:26;;;;;;;18.87;4.37;;;;;;;;;;4996298;28;20541;-72
2022/01/08 04:57:52;;;;;;;16.73;4.97;;;;;;;;;;4994734;28;20043;-72
2022/01/08 05:00:19;;;;;;;20.38;4.70;;;;;;;;;;4996147;28;20061;-74
2022/01/08 05:02:45;;;;;;;29.05;4.32;;;;;;;;;;4990223;28;20034;-75
2022/01/08 05:05:11;;;;;;;19.40;4.30;;;;;;;;;;5010341;28;20038;-75
2022/01/08 05:07:36;;;;;;;20.23;4.83;;;;;;;;;;4994298;28;20030;-74
2022/01/08 05:10:03;;;;;;;19.37;5.10;;;;;;;;;;4994743;28;20030;-75
2022/01/08 05:12:28;;;;;;;;;;;;;;;;;;4995226;28;20038;-72
2022/01/08 05:14:56;;;;;;;27.27;5.20;;;;;;;;;;5010565;28;19983;-72
2022/01/08 05:17:27;;;;;;;18.30;4.55;;;;;;;;;;4995550;28;20042;-72
2022/01/08 05:19:53;;;;;;;19.17;4.28;;;;;;;;;;5009962;28;20482;-72
2022/01/08 05:22:27;;;;;;;17.67;3.60;;;;;;;;;;4995400;28;20034;-72
2022/01/08 05:24:53;;;;;;;20.77;3.42;;;;;;;;;;5009510;28;20062;-72
2022/01/08 05:27:19;;;;;;;17.10;3.30;;;;;;;;;;5010701;28;20038;-72
2022/01/08 05:29:46;;;;;;;20.83;4.00;;;;;;;;;;4995416;28;20057;-72
2022/01/08 05:32:16;;;;;;;17.08;2.92;;;;;;;;;;5010775;28;20161;-72
2022/01/08 05:34:48;;;;;;;13.63;2.78;;;;;;;;;;4989235;28;20042;-71
2022/01/08 05:37:14;;;;;;;13.75;2.65;;;;;;;;;;5010049;28;20518;-72
2022/01/08 05:39:39;;;;;;;15.80;3.33;;;;;;;;;;4995152;28;20031;-72
2022/01/08 05:42:05;;;;;;;14.60;3.73;;;;;;;;;;4994082;28;20030;-71
2022/01/08 05:44:30;;;;;;;12.57;2.73;;;;;;;;;;4995142;28;20045;-72
2022/01/08 05:46:55;;;;;;;16.23;3.83;;;;;;;;;;4994799;28;20045;-71
2022/01/08 05:49:21;;;;;;;14.23;3.90;;;;;;;;;;4994098;28;20035;-72
2022/01/08 05:51:46;;;;;;;23.63;3.90;;;;;;;;;;5010147;28;20113;-72
2022/01/08 05:54:12;;;;;;;13.00;2.80;;;;;;;;;;4993859;28;20068;-71
2022/01/08 05:56:37;;;;;;;18.20;2.63;;;;;;;;;;4994891;28;20482;-74
2022/01/08 05:59:03;;;;;;;43.53;3.90;;;;;;;;;;4993693;28;20371;-73
2022/01/08 06:01:28;;;;;;;18.80;4.20;;;;;;;;;;5010106;28;20096;-73
2022/01/08 06:03:54;;;;;;;24.17;3.83;;;;;;;;;;4994943;28;20030;-74
2022/01/08 06:06:19;;;;;;;15.77;3.50;;;;;;;;;;4994663;28;20115;-74
2022/01/08 06:08:44;;;;;;;21.23;3.50;;;;;;;;;;4994722;28;20030;-75
2022/01/08 06:11:10;;;;;;;17.77;3.87;;;;;;;;;;4993344;28;20471;-74
2022/01/08 06:13:35;;;;;;;22.10;4.00;;;;;;;;;;4994015;28;20038;-71
2022/01/08 06:16:01;;;;;;;16.43;3.33;;;;;;;;;;4991286;28;20042;-71
2022/01/08 06:18:26;;;;;;;14.27;3.77;;;;;;;;;;4994182;28;20471;-71
2022/01/08 06:20:52;;;;;;;15.63;3.70;;;;;;;;;;4992803;28;20062;-71
2022/01/08 06:23:17;;;;;;;23.60;3.63;;;;;;;;;;4994138;28;20502;-71
2022/01/08 06:25:43;;;;;;;19.87;4.00;;;;;;;;;;5009301;28;20124;-71
2022/01/08 06:28:10;;;;;;;19.70;4.13;;;;;;;;;;4994268;28;20027;-71
2022/01/08 06:30:36;;;;;;;19.15;3.05;;;;;;;;;;4994322;28;20037;-71
2022/01/08 06:33:01;;;;;;;16.27;4.67;;;;;;;;;;4991722;28;20056;-71
2022/01/08 06:35:27;;;;;;;17.07;2.77;;;;;;;;;;4992968;28;20037;-71
2022/01/08 06:37:52;;;;;;;13.33;2.60;;;;;;;;;;5009324;28;20034;-71
2022/01/08 06:40:17;;;;;;;9.83;2.33;;;;;;;;;;4994259;28;20467;-71
2022/01/08 06:42:43;;;;;;;18.93;3.00;;;;;;;;;;4994098;28;20038;-71
2022/01/08 06:45:08;;;;;;;14.27;2.60;;;;;;;;;;4992473;28;20096;-73
2022/01/08 06:47:34;;;;;;;15.27;3.97;;;;;;;;;;4993892;28;20022;-71
2022/01/08 06:49:59;;;;;;;10.47;3.30;;;;;;;;;;4994033;28;20101;-70
2022/01/08 06:52:25;;;;;;;14.70;3.23;;;;;;;;;;4993500;28;20034;-71
2022/01/08 06:54:50;;;;;;;15.37;2.70;;;;;;;;;;4994035;28;20387;-71
2022/01/08 06:57:15;;;;;;;11.60;2.43;;;;;;;;;;4992512;28;20049;-71
2022/01/08 06:59:41;;;;;;;8.27;2.60;;;;;;;;;;4992481;28;20045;-72
2022/01/08 07:02:07;;;;;;;9.27;1.80;;;;;;;;;;4992184;28;20050;-73
2022/01/08 07:04:32;;;;;;;10.40;2.10;;;;;;;;;;5008947;28;20492;-73
2022/01/08 07:06:58;;;;;;;9.00;1.70;;;;;;;;;;4993501;28;20299;-73
2022/01/08 07:09:24;;;;;;;7.13;1.50;;;;;;;;;;4992585;28;20053;-73
2022/01/08 07:11:50;;;;;;;4.27;2.73;;;;;;;;;;4992058;28;20073;-72
2022/01/08 07:14:15;;;;;;;7.73;1.70;;;;;;;;;;4990003;28;20065;-72
2022/01/08 07:16:41;;;;;;;6.53;1.20;;;;;;;;;;4993370;28;20484;-72
2022/01/08 07:19:06;;;;;;;4.50;1.57;;;;;;;;;;4991981;28;20497;-72
2022/01/08 07:21:31;;;;;;;11.17;2.23;;;;;;;;;;4990993;28;20552;-72
2022/01/08 07:23:57;;;;;;;5.93;2.07;;;;;;;;;;4993304;28;20491;-72
2022/01/08 07:26:22;;;;;;;15.17;2.10;;;;;;;;;;4989410;28;20035;-72
2022/01/08 07:28:48;;;;;;;13.60;2.30;;;;;;;;;;4991601;28;20045;-73
2022/01/08 07:31:13;;;;;;;9.60;2.80;;;;;;;;;;4990264;28;20022;-74
2022/01/08 07:33:39;;;;;;;12.40;3.10;;;;;;;;;;4986330;28;20467;-73
2022/01/08 07:36:04;;;;;;;17.90;2.77;;;;;;;;;;4992659;28;20140;-74
2022/01/08 07:38:30;;;;;;;14.30;3.03;;;;;;;;;;4992193;28;20054;-74
2022/01/08 07:40:56;;;;;;;18.92;3.67;;;;;;;;;;5008477;28;20427;-74
2022/01/08 07:43:21;;;;;;;10.97;3.03;;;;;;;;;;4991326;28;20038;-71
2022/01/08 07:45:47;;;;;;;11.93;2.97;;;;;;;;;;4993244;28;20023;-73
2022/01/08 07:48:13;;;;;;;10.63;2.55;;;;;;;;;;4993388;28;20034;-71
2022/01/08 07:50:38;;;;;;;18.97;3.00;;;;;;;;;;4993464;28;20050;-71
2022/01/08 07:53:04;;;;;;;15.00;2.57;;;;;;;;;;4993248;28;20034;-71
2022/01/08 07:55:29;;;;;;;20.17;4.60;;;;;;;;;;4993434;28;20038;-71
2022/01/08 07:57:54;;;;;;;16.10;3.47;;;;;;;;;;4993029;28;20042;-72
2022/01/08 08:00:20;;;;;;;23.93;3.20;;;;;;;;;;4993204;28;20364;-71
2022/01/08 08:02:45;;;;;;;17.90;2.67;;;;;;;;;;4993088;28;20035;-71
2022/01/08 08:05:11;;;;;;;10.97;2.60;;;;;;;;;;4995549;28;20062;-71
2022/01/08 08:07:37;;;;;;;18.70;3.63;;;;;;;;;;4996689;28;20080;-71
2022/01/08 08:10:15;;;;;;;19.65;3.33;;;;;;;;;;4996869;28;20050;-71
2022/01/08 08:12:41;;;;;;;18.45;3.03;;;;;;;;;;4996897;28;20038;-71
2022/01/08 08:15:07;;;;;;;10.82;2.78;;;;;;;;;;5011938;28;20066;-71
2022/01/08 08:17:33;;;;;;;14.35;2.83;;;;;;;;;;4995354;28;20040;-71
2022/01/08 08:20:00;;;;;;;9.57;2.40;;;;;;;;;;4996695;28;20464;-71
2022/01/08 08:22:25;;;;;;;16.90;2.47;;;;;;;;;;5010287;28;20088;-71
2022/01/08 08:24:50;;;;;;;9.27;2.20;;;;;;;;;;4996650;28;20038;-72
2022/01/08 08:27:16;;;;;;;12.27;2.53;;;;;;;;;;4996563;28;20037;-71
2022/01/08 08:29:41;;;;;;;11.23;2.43;;;;;;;;;;4996881;28;20038;-71
2022/01/08 08:32:08;;;;;;;15.33;3.60;;;;;;;;;;4994207;28;20034;-71
2022/01/08 08:34:33;;;;;;;15.23;3.03;;;;;;;;;;5005910;28;20431;-71
2022/01/08 08:36:59;;;;;;;11.10;2.40;;;;;;;;;;4992455;28;20054;-71
2022/01/08 08:39:25;;;;;;;22.70;2.90;;;;;;;;;;4996380;28;20502;-71
2022/01/08 08:41:51;;;;;;;15.17;3.90;;;;;;;;;;4996310;28;20092;-71
2022/01/08 08:44:16;;;;;;;11.57;3.03;;;;;;;;;;5011473;28;20069;-71
2022/01/08 08:46:42;;;;;;;8.83;2.43;;;;;;;;;;4995501;28;20275;-71
2022/01/08 08:49:08;;;;;;;14.57;2.77;;;;;;;;;;4996269;28;20057;-71
2022/01/08 08:51:33;;;;;;;10.80;2.67;;;;;;;;;;5011459;28;20419;-71
2022/01/08 08:53:58;;;;;;;9.73;2.50;;;;;;;;;;4994846;28;20026;-71
2022/01/08 08:56:24;;;;;;;10.17;2.83;;;;;;;;;;4988589;28;20454;-71
2022/01/08 08:58:50;;;;;;;6.30;2.50;;;;;;;;;;4979734;28;20131;-72
2022/01/08 09:01:15;;;;;;;11.47;2.63;;;;;;;;;;4982796;28;20089;-73
2022/01/08 09:03:40;;;;;;;12.43;2.83;;;;;;;;;;5010379;28;20038;-73
2022/01/08 09:06:06;;;;;;;15.57;4.83;;;;;;;;;;4989471;28;20527;-73
2022/01/08 09:08:31;;;;;;;21.90;2.80;;;;;;;;;;4993223;28;20031;-75
2022/01/08 09:10:57;;;;;;;12.47;3.67;;;;;;;;;;4994704;28;20038;-73
2022/01/08 09:13:25;;;;;;;8.80;2.37;;;;;;;;;;4994072;28;20038;-71
2022/01/08 09:15:50;;;;;;;6.97;2.78;;;;;;;;;;4989232;28;20089;-74
2022/01/08 09:18:16;;;;;;;9.83;2.67;;;;;;;;;;4979328;28;20125;-71
2022/01/08 09:20:42;;;;;;;11.35;3.30;;;;;;;;;;4977530;28;20035;-72
2022/01/08 09:23:07;;;;;;;16.23;4.27;;;;;;;;;;4981578;28;20097;-72
2022/01/08 09:25:33;;;;;;;8.13;1.90;;;;;;;;;;4980128;28;20049;-72
2022/01/08 09:27:59;;;;;;;6.03;2.13;;;;;;;;;;4995172;28;20066;-72
2022/01/08 09:30:25;;;;;;;8.53;2.60;;;;;;;;;;4996081;28;20023;-71
2022/01/08 09:32:51;;;;;;;;;;;;;;;;;;4983618;28;20038;-71
2022/01/08 09:35:17;;;;;;;8.82;2.70;;;;;;;;;;4992924;28;19918;-72
2022/01/08 09:37:42;;;;;;;9.30;2.35;;;;;;;;;;4960987;28;20057;-71
2022/01/08 09:40:14;;;;;;;5.50;1.53;;;;;;;;;;4983052;28;20097;-72
2022/01/08 09:42:43;;;;;;;9.63;1.95;;;;;;;;;;4993606;28;20061;-71
2022/01/08 09:45:10;;;;;;;4.68;1.35;;;;;;;;;;4980024;28;20090;-72
2022/01/08 09:47:35;;;;;;;9.30;2.17;;;;;;;;;;4979348;28;20049;-72
2022/01/08 09:50:02;;;;;;;6.00;2.03;;;;;;;;;;4998659;28;20114;-72
2022/01/08 09:52:31;;;;;;;7.63;3.03;;;;;;;;;;4982434;28;20431;-73
2022/01/08 09:54:56;;;;;;;5.65;2.53;;;;;;;;;;4980091;28;20035;-72
2022/01/08 09:57:22;;;;;;;7.27;1.63;;;;;;;;;;4981313;28;20093;-71
2022/01/08 09:59:48;;;;;;;4.33;1.60;;;;;;;;;;4979754;28;20440;-73
2022/01/08 10:02:13;;;;;;;6.60;1.20;;;;;;;;;;4977357;28;20488;-72
2022/01/08 10:04:41;;;;;;;5.47;2.13;;;;;;;;;;4977791;28;20025;-72
2022/01/08 10:07:23;;;;;;;10.57;1.95;;;;;;;;;;4990357;28;20057;-71
2022/01/08 10:10:12;;;;;;;6.05;2.45;;;;;;;;;;4993430;28;20465;-72
2022/01/08 10:12:50;;;;;;;4.97;2.58;;;;;;;;;;4994515;28;20038;-73
2022/01/08 10:18:10;;;;;;;7.13;4.07;;;;;;;;;;4942224;28;20124;-72
2022/01/08 10:20:38;;;;;;;4.10;2.37;;;;;;;;;;4991831;28;20471;-72
2022/01/08 10:23:11;;;;;;;4.20;1.73;;;;;;;;;;4993784;28;20442;-71
2022/01/08 10:25:37;;;;;;;5.18;1.40;;;;;;;;;;4990152;28;20043;-71
2022/01/08 10:28:03;;;;;;;3.50;1.55;;;;;;;;;;4982055;28;20029;-71
2022/01/08 10:30:28;;;;;;;5.63;1.20;;;;;;;;;;5009499;28;20046;-73
2022/01/08 10:32:58;;;;;;;3.17;1.17;;;;;;;;;;4991799;28;20045;-71
2022/01/08 10:35:46;;;;;;;5.50;1.60;;;;;;;;;;4990058;28;20084;-71
2022/01/08 10:38:11;;;;;;;6.82;1.58;;;;;;;;;;4977384;28;20830;-71
2022/01/08 10:40:38;;;;;;;5.43;2.30;;;;;;;;;;4993020;28;20117;-71
2022/01/08 10:43:28;;;;;;;6.18;1.27;;;;;;;;;;4994114;28;20054;-71
2022/01/08 10:45:55;;;;;;;5.70;1.58;;;;;;;;;;5001742;28;20058;-72
2022/01/08 10:48:31;;;;;;;6.20;1.83;;;;;;;;;;4992949;28;20065;-71
2022/01/08 10:51:18;;;;;;;3.25;1.10;;;;;;;;;;4991707;28;20458;-72
2022/01/08 10:53:52;;;;;;;5.00;1.20;;;;;;;;;;5002523;28;20026;-71
2022/01/08 10:56:42;;;;;;;3.38;0.95;;;;;;;;;;4992437;28;20034;-74
2022/01/08 10:59:12;;;;;;;4.20;1.00;;;;;;;;;;4980517;28;20499;-73
2022/01/08 11:01:46;;;;;;;5.63;1.30;;;;;;;;;;4973365;28;20030;-75
2022/01/08 11:04:37;;;;;;;5.10;1.48;;;;;;;;;;4979055;28;20110;-75
2022/01/08 11:07:18;;;;;;;4.55;1.50;;;;;;;;;;4976999;28;20045;-74
2022/01/08 11:09:45;;;;;;;2.53;1.00;;;;;;;;;;5006260;28;20085;-71
2022/01/08 11:12:26;;;;;;;4.82;1.20;;;;;;;;;;5008337;28;20038;-71
2022/01/08 11:17:24;;;;;;;2.07;1.53;;;;;;;;;;4992842;28;20431;-73
2022/01/08 11:20:17;;;;;;;2.65;1.08;;;;;;;;;;4991764;28;20256;-74
2022/01/08 11:22:46;;;;;;;3.80;2.03;;;;;;;;;;4980078;28;20108;-74
2022/01/08 11:25:17;;;;;;;4.30;3.63;;;;;;;;;;4992871;28;20026;-74
2022/01/08 11:27:53;;;;;;;3.10;0.90;;;;;;;;;;4988311;28;20039;-74
2022/01/08 11:30:24;;;;;;;2.80;1.60;;;;;;;;;;4992204;28;20033;-72
2022/01/08 11:32:52;;;;;;;3.33;0.90;;;;;;;;;;4990146;28;20046;-71
2022/01/08 11:35:19;;;;;;;2.85;1.08;;;;;;;;;;4993952;28;20122;-71
2022/01/08 11:37:49;;;;;;;;;;;;;;;;;;5008896;28;20390;-71
2022/01/08 11:40:17;;;;;;;4.88;1.30;;;;;;;;;;4996382;28;19922;-71
2022/01/08 11:42:42;;;;;;;3.72;1.00;;;;;;;;;;4996002;28;20031;-71
2022/01/08 11:45:11;;;;;;;4.53;1.97;;;;;;;;;;4982256;28;20094;-71
2022/01/08 11:47:41;;;;;;;2.13;1.02;;;;;;;;;;4977959;28;20078;-71
2022/01/08 11:50:07;;;;;;;3.85;1.20;;;;;;;;;;4989746;28;20034;-71
2022/01/08 11:52:33;;;;;;;4.45;1.38;;;;;;;;;;4999968;28;20049;-72
2022/01/08 11:54:58;;;;;;;6.40;1.90;;;;;;;;;;4978600;28;20034;-72
2022/01/08 11:57:26;;;;;;;8.50;1.50;;;;;;;;;;4982618;28;20114;-72
2022/01/08 11:59:57;;;;;;;5.22;1.63;;;;;;;;;;4995248;28;20042;-72
2022/01/08 12:02:38;;;;;;;9.93;2.33;;;;;;;;;;4978800;28;20041;-73
2022/01/08 12:05:04;;;;;;;11.55;2.53;;;;;;;;;;4980001;28;20047;-74
2022/01/08 12:07:35;;;;;;;10.80;1.77;;;;;;;;;;4980469;28;20042;-74
2022/01/08 12:10:05;;;;;;;12.65;2.60;;;;;;;;;;4978083;28;20042;-74
2022/01/08 12:12:43;;;;;;;13.80;3.00;;;;;;;;;;4961836;28;20391;-74
2022/01/08 12:15:09;;;;;;;21.05;4.28;;;;;;;;;;4998401;28;20389;-72
2022/01/08 12:17:54;;;;;;;19.93;3.10;;;;;;;;;;4978556;28;20045;-72
2022/01/08 12:20:39;;;;;;;13.18;2.70;;;;;;;;;;5003570;28;20047;-72
2022/01/08 12:23:28;;;;;;;17.67;4.65;;;;;;;;;;4994564;28;20058;-71
2022/01/08 12:25:54;;;;;;;18.35;2.92;;;;;;;;;;4978821;28;20103;-72
2022/01/08 12:28:39;;;;;;;19.02;3.53;;;;;;;;;;4977683;28;20615;-72
2022/01/08 12:31:36;;;;;;;11.32;3.80;;;;;;;;;;4997354;28;20098;-74
2022/01/08 12:34:25;;;;;;;25.35;3.83;;;;;;;;;;4989119;28;20117;-74
2022/01/08 12:36:52;;;;;;;21.17;3.70;;;;;;;;;;4982137;28;20040;-74
2022/01/08 12:39:25;;;;;;;14.63;3.83;;;;;;;;;;5010919;28;20066;-74
2022/01/08 12:42:05;;;;;;;19.17;3.42;;;;;;;;;;4995723;28;20491;-73
2022/01/08 12:44:31;;;;;;;19.63;3.67;;;;;;;;;;5011582;28;20463;-74
2022/01/08 12:46:56;;;;;;;18.90;5.37;;;;;;;;;;4996537;28;20070;-73
2022/01/08 12:49:22;;;;;;;13.50;3.30;;;;;;;;;;4996245;28;20040;-71
2022/01/08 12:51:51;;;;;;;19.40;3.27;;;;;;;;;;5004181;28;20042;-74
2022/01/08 12:54:18;;;;;;;16.00;3.47;;;;;;;;;;4992392;28;20093;-74
2022/01/08 12:56:51;;;;;;;15.93;3.53;;;;;;;;;;5006680;28;20117;-74
2022/01/08 12:59:17;;;;;;;16.88;3.50;;;;;;;;;;4995828;28;20042;-74
2022/01/08 13:01:49;;;;;;;15.15;3.78;;;;;;;;;;4993153;28;20038;-74
2022/01/08 13:04:17;;;;;;;23.75;3.80;;;;;;;;;;4995784;28;20030;-74
2022/01/08 13:06:43;;;;;;;17.85;3.45;;;;;;;;;;4994857;28;20081;-73
2022/01/08 13:09:09;;;;;;;18.20;3.10;;;;;;;;;;4995780;28;20022;-76
2022/01/08 13:11:36;;;;;;;14.97;2.93;;;;;;;;;;4996091;28;20034;-74
2022/01/08 13:14:03;;;;;;;13.27;2.17;;;;;;;;;;4995366;28;20498;-72
2022/01/08 13:16:37;;;;;;;9.57;2.30;;;;;;;;;;4995484;28;20471;-71
2022/01/08 13:19:09;;;;;;;12.50;1.77;;;;;;;;;;4995642;28;20041;-71
2022/01/08 13:21:36;;;;;;;11.80;1.88;;;;;;;;;;4974025;28;20053;-72
2022/01/08 13:24:18;;;;;;;12.18;2.60;;;;;;;;;;4994757;28;20042;-71
2022/01/08 13:26:57;;;;;;;13.20;2.88;;;;;;;;;;5009233;28;20045;-71
2022/01/08 13:29:26;;;;;;;11.93;2.15;;;;;;;;;;4993844;28;20038;-71
2022/01/08 13:31:53;;;;;;;14.30;2.03;;;;;;;;;;4989674;28;20042;-71
2022/01/08 13:34:19;;;;;;;;;;;;;;;;;;4977337;28;20061;-72
2022/01/08 13:37:02;;;;;;;10.90;1.67;;;;;;;;;;4993188;28;19969;-72
2022/01/08 13:39:31;;;;;;;8.68;1.83;;;;;;;;;;4978207;28;20042;-71
2022/01/08 13:42:08;;;;;;;5.68;1.73;;;;;;;;;;4975975;28;20034;-72
2022/01/08 13:44:34;;;;;;;7.13;1.90;;;;;;;;;;4978089;28;20038;-71
2022/01/08 13:46:59;;;;;;;7.90;1.70;;;;;;;;;;4994947;28;20039;-71
2022/01/08 13:49:25;;;;;;;14.33;2.30;;;;;;;;;;4988309;28;20502;-71
2022/01/08 13:51:50;;;;;;;10.23;2.00;;;;;;;;;;5000239;28;20367;-71
2022/01/08 13:54:16;;;;;;;11.40;2.30;;;;;;;;;;4979280;28;20041;-71
2022/01/08 13:56:42;;;;;;;10.77;2.07;;;;;;;;;;4978642;28;20061;-71
2022/01/08 13:59:18;;;;;;;11.93;2.35;;;;;;;;;;4994044;28;20395;-71
2022/01/08 14:01:45;;;;;;;21.20;3.03;;;;;;;;;;4976925;28;20033;-71
2022/01/08 14:04:11;;;;;;;16.17;3.47;;;;;;;;;;4978518;28;20039;-74
2022/01/08 14:06:39;;;;;;;20.65;2.80;;;;;;;;;;4996317;28;20069;-71
2022/01/08 14:09:05;;;;;;;18.92;3.10;;;;;;;;;;4977720;28;20035;-71
2022/01/08 14:11:31;;;;;;;15.52;2.50;;;;;;;;;;4978767;28;20043;-72
2022/01/08 14:13:58;;;;;;;19.47;3.33;;;;;;;;;;4977773;28;20031;-71
2022/01/08 14:16:33;;;;;;;25.30;2.83;;;;;;;;;;4977076;28;20102;-71
2022/01/08 14:19:06;;;;;;;18.58;3.25;;;;;;;;;;4974926;28;20133;-71
2022/01/08 14:21:31;;;;;;;17.42;3.30;;;;;;;;;;4978274;28;20031;-72
2022/01/08 14:24:23;;;;;;;21.52;3.33;;;;;;;;;;5069735;28;20383;-72
2022/01/08 14:27:11;;;;;;;16.08;2.92;;;;;;;;;;5068877;28;20475;-72
2022/01/08 14:29:39;;;;;;;17.27;3.38;;;;;;;;;;5065671;28;20389;-72
2022/01/08 14:32:07;;;;;;;19.35;3.67;;;;;;;;;;5067522;28;20040;-74
2022/01/08 14:34:45;;;;;;;27.38;4.80;;;;;;;;;;5069699;28;20029;-74
2022/01/08 14:37:16;;;;;;;15.40;3.05;;;;;;;;;;5067655;28;20036;-74
2022/01/08 14:39:45;;;;;;;35.72;3.65;;;;;;;;;;5067170;28;20036;-75
2022/01/08 14:42:13;;;;;;;24.02;3.30;;;;;;;;;;5067869;28;20017;-75
2022/01/08 14:44:48;;;;;;;12.55;3.97;;;;;;;;;;5054182;28;20041;-75
2022/01/08 14:47:14;;;;;;;21.67;5.20;;;;;;;;;;5067796;28;20094;-75
2022/01/08 14:49:39;;;;;;;17.67;3.13;;;;;;;;;;5067599;28;20489;-74
2022/01/08 14:52:05;;;;;;;24.33;4.30;;;;;;;;;;5068015;28;20415;-74
2022/01/08 14:54:32;;;;;;;23.27;4.90;;;;;;;;;;5066631;28;20028;-74
2022/01/08 14:56:59;;;;;;;18.98;4.78;;;;;;;;;;5065242;28;20052;-73
2022/01/08 14:59:25;;;;;;;28.52;4.43;;;;;;;;;;5065448;28;20024;-73